Time;durP1;ratioP1;P1;durP2;ratioP2;P2;SDS_P1;SDS_P2;PMS_P1;PMS_P2;Temp;Humidity;BMP_temperature;BMP_pressure;BME280_temperature;BME280_humidity;BME280_pressure;Samples;Min_cycle;Max_cycle;Signal;HPM_P1;HPM_P2
2023/09/17 04:01:16;;;;;;;2.80;2.43;;;21.90;80.20;;;;;;6238183;22;20456;-75
2023/09/17 04:03:44;;;;;;;3.03;2.73;;;21.90;79.80;;;;;;6307799;22;20392;-75
2023/09/17 04:06:10;;;;;;;3.03;2.73;;;22.00;79.50;;;;;;6307879;22;20393;-75
2023/09/17 04:08:37;;;;;;;2.80;2.43;;;22.10;79.40;;;;;;6307812;22;20392;-75
2023/09/17 04:11:04;;;;;;;2.70;2.50;;;22.10;79.30;;;;;;6298370;22;20420;-75
2023/09/17 04:13:31;;;;;;;3.10;2.80;;;22.10;79.30;;;;;;6276928;22;20422;-75
2023/09/17 04:15:58;;;;;;;2.73;2.53;;;22.10;79.20;;;;;;6292406;22;20554;-74
2023/09/17 04:18:26;;;;;;;2.63;2.43;;;22.10;79.00;;;;;;6307504;22;20435;-74
2023/09/17 04:20:53;;;;;;;3.17;2.80;;;21.90;79.50;;;;;;6307607;22;20400;-74
2023/09/17 04:23:20;;;;;;;3.13;2.83;;;21.90;79.60;;;;;;6307588;22;20411;-74
2023/09/17 04:25:46;;;;;;;3.83;2.47;;;21.90;79.60;;;;;;6290839;22;20417;-74
2023/09/17 04:28:13;;;;;;;3.00;2.57;;;21.90;79.70;;;;;;6276565;22;20401;-74
2023/09/17 04:30:40;;;;;;;2.80;2.50;;;21.70;79.90;;;;;;6276902;22;20397;-74
2023/09/17 04:33:06;;;;;;;3.20;2.70;;;21.80;80.00;;;;;;6276789;22;20416;-74
2023/09/17 04:35:34;;;;;;;3.20;2.90;;;21.70;80.00;;;;;;6276514;22;20428;-74
2023/09/17 04:38:02;;;;;;;3.43;2.67;;;21.50;79.90;;;;;;6276109;22;20496;-74
2023/09/17 04:40:30;;;;;;;2.90;2.70;;;21.50;80.00;;;;;;6276594;22;20405;-74
2023/09/17 04:42:57;;;;;;;2.80;2.47;;;21.50;80.60;;;;;;6276517;22;20397;-74
2023/09/17 04:45:34;;;;;;;3.90;2.57;;;21.50;80.50;;;;;;6276290;22;20417;-74
2023/09/17 04:48:01;;;;;;;2.63;2.43;;;21.50;80.70;;;;;;6276456;22;20451;-74
2023/09/17 04:50:28;;;;;;;3.40;3.10;;;21.40;80.60;;;;;;6276519;22;20401;-74
2023/09/17 04:52:56;;;;;;;2.70;2.50;;;21.10;81.90;;;;;;6276421;22;20989;-74
2023/09/17 04:55:24;;;;;;;3.07;2.80;;;21.20;81.70;;;;;;6276394;22;20417;-74
2023/09/17 04:57:52;;;;;;;3.37;2.47;;;21.20;81.50;;;;;;6276375;22;20437;-74
2023/09/17 05:00:20;;;;;;;2.87;2.57;;;21.30;81.20;;;;;;6276444;22;20406;-74
2023/09/17 05:02:48;;;;;;;2.77;2.37;;;21.40;80.90;;;;;;6276711;22;20406;-74
2023/09/17 05:05:17;;;;;;;2.80;2.60;;;21.50;80.70;;;;;;6276413;22;20432;-74
2023/09/17 05:07:44;;;;;;;3.53;2.70;;;21.60;80.20;;;;;;6276030;22;20401;-74
2023/09/17 05:10:12;;;;;;;2.57;2.30;;;21.70;79.90;;;;;;6276392;22;20402;-74
2023/09/17 05:12:39;;;;;;;3.00;2.70;;;21.80;79.60;;;;;;6276377;22;20447;-74
2023/09/17 05:15:06;;;;;;;3.10;2.80;;;21.80;79.60;;;;;;6276369;22;20433;-74
2023/09/17 05:17:33;;;;;;;3.00;2.70;;;21.80;79.10;;;;;;6276355;22;20429;-74
2023/09/17 05:20:00;;;;;;;3.40;3.10;;;21.90;78.90;;;;;;6275991;22;20404;-74
2023/09/17 05:22:26;;;;;;;3.17;2.87;;;21.80;78.80;;;;;;6275892;22;20722;-74
2023/09/17 05:24:53;;;;;;;2.70;2.50;;;21.70;79.20;;;;;;6276264;22;20428;-74
2023/09/17 05:27:21;;;;;;;2.80;2.60;;;21.50;79.90;;;;;;6276302;22;20394;-74
2023/09/17 05:29:48;;;;;;;3.13;2.70;;;21.40;80.50;;;;;;6276258;22;20401;-74
2023/09/17 05:32:15;;;;;;;3.47;2.97;;;21.50;80.00;;;;;;6276293;22;20397;-74
2023/09/17 05:34:44;;;;;;;3.23;2.93;;;21.70;79.50;;;;;;6275859;22;20419;-74
2023/09/17 05:37:10;;;;;;;3.07;2.77;;;21.90;79.10;;;;;;6276209;22;20468;-74
2023/09/17 05:39:37;;;;;;;3.60;2.60;;;22.00;78.60;;;;;;6276259;22;20409;-74
2023/09/17 05:42:04;;;;;;;2.80;2.50;;;22.00;78.50;;;;;;6275869;22;20397;-74
2023/09/17 05:44:32;;;;;;;3.17;2.33;;;21.90;78.30;;;;;;6276087;22;20405;-74
2023/09/17 05:46:59;;;;;;;2.60;2.00;;;22.00;78.10;;;;;;6276142;22;20401;-74
2023/09/17 05:49:26;;;;;;;2.40;2.10;;;22.00;78.40;;;;;;6276247;22;20398;-74
2023/09/17 05:51:52;;;;;;;2.40;1.93;;;22.00;78.10;;;;;;6276219;22;20397;-74
2023/09/17 05:54:21;;;;;;;2.90;2.30;;;22.20;78.00;;;;;;6275869;22;20441;-74
2023/09/17 05:56:48;;;;;;;2.17;1.80;;;22.50;77.10;;;;;;6277593;22;20427;-74
2023/09/17 05:59:14;;;;;;;2.50;2.30;;;22.90;76.20;;;;;;6277709;22;20884;-74
2023/09/17 06:01:42;;;;;;;2.30;2.10;;;23.50;73.00;;;;;;6278063;22;20729;-74
2023/09/17 06:04:09;;;;;;;2.20;1.80;;;24.10;71.40;;;;;;6278248;22;20393;-75
2023/09/17 06:06:36;;;;;;;2.00;1.63;;;24.80;68.90;;;;;;6277501;22;20426;-74
2023/09/17 06:09:02;;;;;;;3.00;1.90;;;25.10;67.60;;;;;;6277973;22;20396;-75
2023/09/17 06:11:30;;;;;;;2.37;2.17;;;24.90;67.90;;;;;;6277935;22;20401;-74
2023/09/17 06:13:56;;;;;;;2.70;2.33;;;24.80;68.30;;;;;;6277885;22;20397;-75
2023/09/17 06:16:23;;;;;;;2.43;2.03;;;24.60;69.00;;;;;;6277366;22;20425;-75
2023/09/17 06:18:51;;;;;;;2.73;2.00;;;24.50;69.50;;;;;;6277758;22;20437;-74
2023/09/17 06:21:18;;;;;;;2.33;1.93;;;24.50;70.10;;;;;;6278391;22;20409;-74
2023/09/17 06:23:45;;;;;;;2.40;2.20;;;24.70;70.30;;;;;;6277378;22;20919;-75
2023/09/17 06:26:12;;;;;;;2.50;1.83;;;25.40;69.90;;;;;;6277300;22;20927;-75
2023/09/17 06:28:38;;;;;;;2.10;1.83;;;26.40;66.90;;;;;;6277724;22;20450;-75
2023/09/17 06:31:05;;;;;;;2.50;2.03;;;27.40;63.80;;;;;;6277697;22;20420;-75
2023/09/17 06:33:33;;;;;;;2.63;2.00;;;28.20;62.90;;;;;;6277614;22;20488;-75
2023/09/17 06:36:01;;;;;;;2.50;2.20;;;28.70;60.70;;;;;;6277609;22;20453;-75
2023/09/17 06:38:28;;;;;;;1.93;1.50;;;28.80;59.70;;;;;;6277622;22;20851;-75
2023/09/17 06:40:55;;;;;;;2.30;1.87;;;28.60;59.50;;;;;;6277631;22;20405;-75
2023/09/17 06:43:22;;;;;;;1.80;1.40;;;28.80;58.50;;;;;;6277594;22;20408;-74
2023/09/17 06:45:48;;;;;;;2.13;1.63;;;28.70;59.10;;;;;;6277138;22;21030;-76
2023/09/17 06:48:15;;;;;;;2.30;1.70;;;28.40;58.60;;;;;;6277164;22;20737;-75
2023/09/17 06:50:42;;;;;;;1.93;1.60;;;27.60;60.50;;;;;;6277159;22;20926;-75
2023/09/17 06:53:10;;;;;;;1.90;1.67;;;27.60;61.70;;;;;;6277112;22;20500;-75
2023/09/17 06:55:37;;;;;;;2.33;1.80;;;28.40;60.00;;;;;;6276945;22;20864;-75
2023/09/17 06:58:04;;;;;;;2.20;1.50;;;29.10;58.30;;;;;;6277383;22;20486;-75
2023/09/17 07:00:31;;;;;;;1.93;1.73;;;29.30;58.10;;;;;;6277422;22;20406;-75
2023/09/17 07:02:57;;;;;;;2.23;2.00;;;28.90;58.30;;;;;;6277364;22;20405;-75
2023/09/17 07:05:24;;;;;;;2.10;1.70;;;28.80;58.90;;;;;;6277316;22;20449;-75
2023/09/17 07:07:51;;;;;;;2.27;1.50;;;28.70;59.30;;;;;;6277246;22;20398;-75
2023/09/17 07:10:20;;;;;;;1.93;1.50;;;28.80;59.90;;;;;;6277395;22;20405;-75
2023/09/17 07:12:47;;;;;;;2.70;1.80;;;29.10;58.80;;;;;;6277289;22;20405;-76
2023/09/17 07:15:14;;;;;;;2.40;1.80;;;29.20;58.60;;;;;;6276992;22;20448;-76
2023/09/17 07:17:40;;;;;;;2.10;1.77;;;29.10;57.40;;;;;;6277052;22;20437;-75
2023/09/17 07:20:08;;;;;;;1.80;1.40;;;28.80;58.30;;;;;;6277177;22;20403;-76
2023/09/17 07:22:35;;;;;;;1.90;1.47;;;28.60;59.00;;;;;;6277183;22;20406;-75
2023/09/17 07:25:04;;;;;;;2.20;1.77;;;28.60;59.00;;;;;;6276686;22;20920;-74
2023/09/17 07:27:33;;;;;;;3.37;2.33;;;28.60;59.70;;;;;;6277075;22;20454;-74
2023/09/17 07:29:59;;;;;;;2.40;1.80;;;28.30;58.50;;;;;;6277140;22;20401;-75
2023/09/17 07:32:27;;;;;;;2.20;1.77;;;28.00;59.20;;;;;;6276712;22;20401;-75
2023/09/17 07:34:55;;;;;;;2.03;1.53;;;28.00;60.50;;;;;;6277008;22;20444;-74
2023/09/17 07:37:21;;;;;;;2.30;1.73;;;27.90;60.40;;;;;;6276974;22;20488;-75
2023/09/17 07:39:48;;;;;;;2.87;1.70;;;27.40;60.60;;;;;;6276644;22;20405;-75
2023/09/17 07:42:15;;;;;;;2.40;2.07;;;27.10;61.50;;;;;;6276975;22;20479;-75
2023/09/17 07:44:43;;;;;;;2.20;1.80;;;27.00;62.60;;;;;;6277225;22;20401;-75
2023/09/17 07:47:10;;;;;;;2.07;1.60;;;27.20;62.00;;;;;;6277087;22;20405;-75
2023/09/17 07:49:37;;;;;;;2.30;1.90;;;27.10;61.70;;;;;;6276594;22;20872;-75
2023/09/17 07:52:04;;;;;;;2.30;1.60;;;27.00;62.40;;;;;;6277553;22;20504;-75
2023/09/17 07:54:31;;;;;;;2.77;1.70;;;26.90;62.90;;;;;;6276834;22;20451;-75
2023/09/17 07:56:58;;;;;;;2.00;1.57;;;26.60;63.60;;;;;;6276813;22;20405;-75
2023/09/17 07:59:24;;;;;;;2.40;1.70;;;26.60;63.80;;;;;;6276839;22;20841;-75
2023/09/17 08:01:53;;;;;;;2.10;1.60;;;26.90;63.70;;;;;;6276493;22;20892;-75
2023/09/17 08:04:19;;;;;;;2.50;1.80;;;26.90;64.10;;;;;;6276414;22;20744;-75
2023/09/17 08:06:48;;;;;;;2.30;1.70;;;27.00;64.50;;;;;;6276734;22;20512;-74
2023/09/17 08:09:15;;;;;;;2.37;1.57;;;26.90;63.80;;;;;;6276778;22;20404;-75
2023/09/17 08:11:42;;;;;;;2.30;1.50;;;27.10;64.20;;;;;;6276848;22;20526;-75
2023/09/17 08:14:09;;;;;;;2.13;1.70;;;27.40;63.60;;;;;;6276760;22;20393;-75
2023/09/17 08:16:36;;;;;;;2.60;1.83;;;27.50;62.80;;;;;;6276498;22;20520;-75
2023/09/17 08:19:05;;;;;;;3.27;1.90;;;27.70;62.50;;;;;;6276334;22;20444;-75
2023/09/17 08:21:32;;;;;;;1.90;1.50;;;27.60;62.30;;;;;;6276856;22;20397;-75
2023/09/17 08:23:59;;;;;;;2.00;1.70;;;27.40;62.50;;;;;;6276795;22;20412;-75
2023/09/17 08:26:27;;;;;;;2.70;1.70;;;27.60;61.30;;;;;;6276546;22;20756;-75
2023/09/17 08:28:55;;;;;;;2.77;1.60;;;27.60;61.60;;;;;;6276636;22;20400;-75
2023/09/17 08:31:22;;;;;;;2.93;1.93;;;27.40;62.40;;;;;;6276632;22;20405;-75
2023/09/17 08:33:49;;;;;;;2.60;1.70;;;27.20;62.60;;;;;;6276589;22;20432;-75
2023/09/17 08:36:19;;;;;;;2.17;1.67;;;27.10;63.70;;;;;;6276484;22;20428;-75
2023/09/17 08:38:48;;;;;;;2.77;1.70;;;27.20;63.60;;;;;;6276442;22;20931;-75
2023/09/17 08:41:16;;;;;;;2.07;1.50;;;27.20;64.10;;;;;;6276644;22;20405;-75
2023/09/17 08:43:44;;;;;;;2.73;1.50;;;27.40;63.80;;;;;;6277914;22;20404;-75
2023/09/17 08:46:10;;;;;;;2.47;1.70;;;27.20;63.20;;;;;;6276445;22;20425;-75
2023/09/17 08:48:37;;;;;;;2.00;1.50;;;27.10;63.00;;;;;;6276482;22;20397;-75
2023/09/17 08:51:05;;;;;;;2.27;1.30;;;27.30;63.30;;;;;;6276388;22;20408;-75
2023/09/17 08:53:41;;;;;;;2.40;1.87;;;27.20;63.70;;;;;;6276024;22;20892;-75
2023/09/17 08:56:13;;;;;;;2.30;1.50;;;27.30;64.20;;;;;;6276072;22;20970;-75
2023/09/17 08:58:51;;;;;;;2.20;1.60;;;27.30;64.00;;;;;;6276402;22;20950;-75
2023/09/17 09:01:20;;;;;;;2.90;1.90;;;27.10;63.90;;;;;;6276457;22;20775;-75
2023/09/17 09:03:47;;;;;;;2.00;1.50;;;27.20;64.40;;;;;;6275960;22;20896;-75
2023/09/17 09:06:16;;;;;;;2.60;1.80;;;27.30;63.70;;;;;;6276363;22;20421;-75
2023/09/17 09:08:46;;;;;;;3.60;1.67;;;27.30;64.20;;;;;;6276598;22;20405;-75
2023/09/17 09:11:14;;;;;;;4.13;2.20;;;27.30;63.30;;;;;;6276019;22;20795;-75
2023/09/17 09:13:42;;;;;;;2.67;1.63;;;27.20;63.40;;;;;;6276600;22;20405;-75
2023/09/17 09:16:08;;;;;;;2.73;1.60;;;27.20;64.00;;;;;;6275834;22;20524;-77
2023/09/17 09:18:36;;;;;;;2.87;2.10;;;27.30;63.10;;;;;;6276297;22;20437;-75
2023/09/17 09:21:02;;;;;;;2.23;1.73;;;27.40;63.60;;;;;;6276672;22;20396;-75
2023/09/17 09:23:29;;;;;;;2.00;1.37;;;27.30;62.20;;;;;;6277271;22;20404;-75
2023/09/17 09:25:59;;;;;;;3.50;2.17;;;27.20;63.10;;;;;;6276800;22;20794;-75
2023/09/17 09:28:30;;;;;;;3.30;2.17;;;27.40;63.70;;;;;;6276227;22;20749;-75
2023/09/17 09:30:57;;;;;;;2.93;2.10;;;27.60;60.30;;;;;;6276951;22;20389;-74
2023/09/17 09:33:24;;;;;;;2.57;1.73;;;27.70;62.10;;;;;;6277858;22;20916;-75
2023/09/17 09:35:51;;;;;;;2.00;1.50;;;27.90;61.30;;;;;;6277951;22;20923;-74
2023/09/17 09:38:19;;;;;;;3.10;1.90;;;27.70;61.20;;;;;;6278072;22;20486;-74
2023/09/17 09:40:46;;;;;;;3.20;2.00;;;27.60;61.50;;;;;;6278264;22;20420;-75
2023/09/17 09:43:38;;;;;;;2.80;1.63;;;27.80;60.50;;;;;;6277799;22;20777;-75
2023/09/17 09:46:06;;;;;;;3.10;1.70;;;28.00;61.40;;;;;;6241048;22;20976;-74
2023/09/17 09:48:37;;;;;;;4.10;1.80;;;27.90;57.80;;;;;;6278129;22;20404;-75
2023/09/17 09:51:04;;;;;;;3.23;1.60;;;27.80;59.10;;;;;;6278175;22;20389;-74
2023/09/17 09:53:31;;;;;;;3.50;1.80;;;27.60;58.10;;;;;;6278072;22;20436;-74
2023/09/17 09:55:58;;;;;;;2.93;1.43;;;27.50;57.90;;;;;;6277597;22;20759;-75
2023/09/17 09:58:25;;;;;;;2.70;1.53;;;27.60;58.60;;;;;;6277485;22;20958;-75
2023/09/17 10:00:54;;;;;;;2.87;1.50;;;27.60;58.50;;;;;;6277973;22;20401;-74
2023/09/17 10:03:21;;;;;;;3.00;1.80;;;27.70;59.30;;;;;;6277624;22;20891;-75
2023/09/17 10:05:48;;;;;;;2.50;1.50;;;27.70;59.10;;;;;;6277816;22;20425;-74
2023/09/17 10:08:17;;;;;;;2.10;1.57;;;27.60;59.00;;;;;;6277952;22;20794;-74
2023/09/17 10:10:44;;;;;;;2.50;2.00;;;27.60;58.90;;;;;;6277903;22;20405;-74
2023/09/17 10:13:12;;;;;;;3.17;1.30;;;27.80;57.80;;;;;;6278437;22;20416;-75
2023/09/17 10:15:41;;;;;;;2.33;1.70;;;27.70;57.80;;;;;;6278097;22;20445;-75
2023/09/17 10:18:12;;;;;;;2.43;1.40;;;27.80;58.50;;;;;;6277755;22;20397;-75
2023/09/17 10:20:39;;;;;;;2.63;1.50;;;28.00;59.00;;;;;;6277937;22;20385;-74
2023/09/17 10:23:07;;;;;;;2.50;1.50;;;27.90;56.90;;;;;;6277818;22;20409;-74
2023/09/17 10:25:35;;;;;;;3.00;1.73;;;27.90;58.50;;;;;;6278013;22;20429;-74
2023/09/17 10:28:05;;;;;;;2.73;1.50;;;27.70;57.00;;;;;;6277868;22;20512;-74
2023/09/17 10:30:32;;;;;;;2.43;1.57;;;27.70;57.00;;;;;;6277947;22;20408;-73
2023/09/17 10:33:00;;;;;;;2.53;1.50;;;27.90;58.90;;;;;;6277756;22;20831;-74
2023/09/17 10:35:29;;;;;;;3.13;1.50;;;28.10;59.40;;;;;;6277731;22;20474;-75
2023/09/17 10:37:58;;;;;;;2.40;1.57;;;28.40;55.90;;;;;;6277533;22;20405;-75
2023/09/17 10:40:26;;;;;;;2.03;1.53;;;28.60;56.00;;;;;;6277071;22;20487;-75
2023/09/17 10:42:55;;;;;;;3.60;1.70;;;28.80;55.90;;;;;;6277380;22;20451;-74
2023/09/17 10:45:24;;;;;;;3.67;2.10;;;29.00;56.80;;;;;;6277436;22;20426;-74
2023/09/17 10:47:52;;;;;;;2.83;1.50;;;28.60;58.10;;;;;;6277498;22;20409;-74
2023/09/17 10:50:20;;;;;;;2.20;1.40;;;28.60;56.60;;;;;;6277543;22;20394;-74
2023/09/17 10:52:48;;;;;;;2.13;1.40;;;28.60;57.40;;;;;;6277474;22;20428;-74
2023/09/17 10:55:16;;;;;;;2.63;1.73;;;28.70;55.90;;;;;;6277345;22;20440;-74
2023/09/17 10:57:46;;;;;;;2.57;1.63;;;28.60;56.30;;;;;;6277647;22;20488;-75
2023/09/17 11:00:17;;;;;;;2.20;1.37;;;28.80;57.70;;;;;;6278479;22;20483;-74
2023/09/17 11:02:48;;;;;;;2.17;1.23;;;28.70;57.00;;;;;;6277439;22;20854;-74
2023/09/17 11:05:19;;;;;;;3.97;1.57;;;28.70;57.50;;;;;;6277492;22;20432;-74
2023/09/17 11:07:48;;;;;;;2.70;1.60;;;28.50;55.90;;;;;;6277526;22;20386;-74
2023/09/17 11:10:15;;;;;;;2.70;1.47;;;28.50;57.00;;;;;;6277517;22;20427;-74
2023/09/17 11:12:42;;;;;;;2.60;1.30;;;28.60;55.50;;;;;;6277370;22;20405;-74
2023/09/17 11:15:10;;;;;;;1.90;1.33;;;28.60;53.80;;;;;;6277052;22;20433;-74
2023/09/17 11:17:38;;;;;;;3.63;1.70;;;28.50;56.40;;;;;;6277294;22;20401;-74
2023/09/17 11:20:13;;;;;;;2.40;1.50;;;28.80;55.30;;;;;;6277372;22;20527;-74
2023/09/17 11:22:43;;;;;;;2.03;1.10;;;29.00;55.20;;;;;;6277320;22;20389;-74
2023/09/17 11:25:11;;;;;;;2.10;1.23;;;28.80;54.70;;;;;;6277144;22;20460;-74
2023/09/17 11:27:47;;;;;;;2.13;1.37;;;28.60;54.90;;;;;;6276765;22;20725;-73
2023/09/17 11:30:16;;;;;;;1.90;1.33;;;28.60;55.00;;;;;;6277114;22;20411;-74
2023/09/17 11:32:52;;;;;;;2.83;1.50;;;28.80;54.10;;;;;;6276801;22;20443;-73
2023/09/17 11:35:22;;;;;;;1.90;1.30;;;29.10;54.40;;;;;;6277049;22;20427;-74
2023/09/17 11:37:49;;;;;;;2.37;1.73;;;29.40;54.70;;;;;;6277062;22;20401;-74
2023/09/17 11:40:18;;;;;;;2.77;1.43;;;29.50;54.40;;;;;;6276609;22;20950;-74
2023/09/17 11:42:45;;;;;;;1.93;1.03;;;29.60;52.70;;;;;;6276925;22;20757;-73
2023/09/17 11:45:12;;;;;;;2.20;1.37;;;29.60;53.00;;;;;;6276564;22;20424;-73
2023/09/17 11:47:39;;;;;;;2.47;1.23;;;29.60;53.80;;;;;;6276661;22;20429;-74
2023/09/17 11:50:08;;;;;;;1.90;1.10;;;29.70;54.00;;;;;;6276941;22;20448;-74
2023/09/17 11:52:35;;;;;;;2.00;1.50;;;29.80;54.20;;;;;;6276905;22;20480;-73
2023/09/17 11:55:06;;;;;;;2.30;1.30;;;29.80;53.30;;;;;;6276428;22;20436;-73
2023/09/17 11:57:35;;;;;;;2.17;1.20;;;29.70;53.50;;;;;;6277604;22;20390;-73
2023/09/17 12:00:02;;;;;;;2.60;1.40;;;29.70;52.90;;;;;;6277038;22;20437;-73
2023/09/17 12:02:29;;;;;;;2.33;1.40;;;29.60;52.50;;;;;;6276412;22;20437;-74
2023/09/17 12:04:57;;;;;;;2.00;1.20;;;29.80;52.20;;;;;;6276369;22;21004;-74
2023/09/17 12:07:25;;;;;;;2.03;1.30;;;30.20;54.40;;;;;;6276717;22;20455;-74
2023/09/17 12:10:00;;;;;;;2.27;1.40;;;30.10;52.50;;;;;;6276705;22;20398;-74
2023/09/17 12:12:27;;;;;;;2.00;1.20;;;30.10;52.00;;;;;;6276827;22;20381;-74
2023/09/17 12:14:56;;;;;;;2.67;1.40;;;30.10;53.10;;;;;;6276157;22;20421;-74
2023/09/17 12:17:23;;;;;;;2.03;1.33;;;30.00;52.80;;;;;;6276747;22;20710;-74
2023/09/17 12:19:59;;;;;;;2.27;1.30;;;30.30;52.90;;;;;;6276594;22;20437;-74
2023/09/17 12:22:25;;;;;;;2.70;1.50;;;30.50;52.20;;;;;;6276661;22;20393;-74
2023/09/17 12:25:03;;;;;;;2.10;1.40;;;30.80;52.20;;;;;;6276753;22;20425;-74
2023/09/17 12:27:35;;;;;;;3.23;1.20;;;30.50;52.40;;;;;;6276742;22;20388;-74
2023/09/17 12:30:10;;;;;;;2.27;1.30;;;30.40;51.10;;;;;;6276631;22;20416;-75
2023/09/17 12:32:37;;;;;;;3.47;1.37;;;30.60;50.30;;;;;;6276536;22;20409;-74
2023/09/17 12:35:06;;;;;;;2.63;1.13;;;30.60;50.90;;;;;;6276522;22;20425;-74
2023/09/17 12:37:32;;;;;;;2.23;1.40;;;31.00;51.20;;;;;;6276560;22;20401;-75
2023/09/17 12:39:59;;;;;;;3.10;1.53;;;31.20;50.50;;;;;;6276444;22;20452;-74
2023/09/17 12:42:26;;;;;;;2.77;1.60;;;31.10;51.30;;;;;;6276908;22;20397;-75
2023/09/17 12:44:53;;;;;;;2.03;1.30;;;31.10;51.90;;;;;;6276389;22;20432;-74
2023/09/17 12:47:24;;;;;;;2.83;1.40;;;31.00;51.80;;;;;;6276222;22;20899;-74
2023/09/17 12:49:52;;;;;;;3.00;1.40;;;30.90;51.90;;;;;;6276215;22;20386;-74
2023/09/17 12:52:19;;;;;;;2.20;1.40;;;31.10;51.30;;;;;;6276668;22;20773;-75
2023/09/17 12:54:46;;;;;;;4.20;1.43;;;30.80;51.80;;;;;;6276537;22;20405;-74
2023/09/17 12:57:13;;;;;;;2.73;1.50;;;31.00;50.80;;;;;;6276621;22;20405;-74
2023/09/17 12:59:41;;;;;;;2.20;1.40;;;31.00;50.90;;;;;;6276428;22;20747;-73
2023/09/17 13:02:08;;;;;;;2.33;1.43;;;31.20;51.70;;;;;;6276528;22;20409;-74
2023/09/17 13:04:38;;;;;;;3.40;1.60;;;31.50;50.20;;;;;;6276698;22;20401;-74
2023/09/17 13:07:06;;;;;;;4.93;1.20;;;31.90;50.90;;;;;;6278612;22;20402;-74
2023/09/17 13:09:33;;;;;;;2.20;1.80;;;32.30;49.10;;;;;;6278570;22;20412;-75
2023/09/17 13:12:00;;;;;;;5.23;1.90;;;32.20;49.50;;;;;;6278505;22;20447;-75
2023/09/17 13:14:30;;;;;;;2.20;1.30;;;32.20;49.40;;;;;;6278126;22;20405;-74
2023/09/17 13:16:56;;;;;;;2.27;1.47;;;32.10;49.60;;;;;;6278001;22;20408;-75
2023/09/17 13:19:23;;;;;;;2.20;1.20;;;32.10;49.10;;;;;;6278459;22;20445;-74
2023/09/17 13:21:51;;;;;;;1.83;1.40;;;32.40;49.40;;;;;;6278501;22;20475;-75
2023/09/17 13:24:19;;;;;;;3.40;1.70;;;32.70;49.90;;;;;;6278155;22;20416;-75
2023/09/17 13:26:45;;;;;;;2.10;1.40;;;32.70;48.90;;;;;;6277896;22;20939;-75
2023/09/17 13:29:12;;;;;;;2.57;1.20;;;32.70;49.30;;;;;;6278265;22;20401;-76
2023/09/17 13:31:40;;;;;;;3.53;1.83;;;32.60;49.40;;;;;;6278055;22;20397;-75
2023/09/17 13:34:08;;;;;;;1.77;1.10;;;32.60;48.70;;;;;;6278718;22;20401;-75
2023/09/17 13:36:35;;;;;;;2.60;1.40;;;32.40;49.60;;;;;;6278055;22;20437;-75
2023/09/17 13:39:03;;;;;;;2.33;1.40;;;32.20;49.70;;;;;;6278274;22;20408;-73
2023/09/17 13:41:30;;;;;;;2.10;1.40;;;32.30;49.00;;;;;;6278098;22;20475;-74
2023/09/17 13:43:57;;;;;;;2.20;1.47;;;32.20;49.40;;;;;;6278537;22;20401;-74
2023/09/17 13:46:24;;;;;;;2.30;1.50;;;32.40;49.60;;;;;;6278244;22;20416;-74
2023/09/17 13:48:51;;;;;;;1.73;1.20;;;32.60;48.10;;;;;;6278925;22;20419;-76
2023/09/17 13:51:18;;;;;;;1.97;1.40;;;32.60;48.80;;;;;;6277753;22;20402;-76
2023/09/17 13:53:45;;;;;;;2.27;1.37;;;32.20;48.90;;;;;;6278197;22;20401;-74
2023/09/17 13:56:13;;;;;;;3.50;1.30;;;32.00;48.70;;;;;;6277967;22;20424;-75
2023/09/17 13:58:39;;;;;;;3.13;1.20;;;32.10;49.10;;;;;;6278167;22;20413;-74
2023/09/17 14:01:06;;;;;;;2.77;1.30;;;32.20;50.10;;;;;;6278016;22;20436;-75
2023/09/17 14:03:33;;;;;;;2.77;2.20;;;32.20;49.30;;;;;;6278067;22;20764;-75
2023/09/17 14:06:00;;;;;;;2.43;1.50;;;32.20;50.00;;;;;;6277865;22;20429;-75
2023/09/17 14:08:29;;;;;;;2.57;1.50;;;32.20;49.10;;;;;;6277541;22;21006;-75
2023/09/17 14:10:56;;;;;;;2.90;1.30;;;32.00;49.20;;;;;;6277631;22;20881;-75
2023/09/17 14:13:24;;;;;;;1.97;1.37;;;32.00;49.60;;;;;;6277748;22;20714;-75
2023/09/17 14:15:50;;;;;;;3.23;1.50;;;32.50;49.60;;;;;;6277976;22;20952;-76
2023/09/17 14:18:17;;;;;;;4.13;1.47;;;33.30;48.10;;;;;;6277209;22;20884;-76
2023/09/17 14:20:44;;;;;;;1.70;1.07;;;33.60;46.60;;;;;;6278074;22;20499;-75
2023/09/17 14:23:10;;;;;;;2.70;1.50;;;33.30;46.70;;;;;;6277878;22;20433;-74
2023/09/17 14:25:37;;;;;;;2.67;1.20;;;32.70;47.60;;;;;;6277365;22;20417;-73
2023/09/17 14:28:04;;;;;;;3.93;1.30;;;32.00;48.90;;;;;;6277707;22;20401;-74
2023/09/17 14:30:33;;;;;;;2.73;1.60;;;31.60;49.60;;;;;;6277749;22;20746;-74
2023/09/17 14:33:00;;;;;;;3.70;1.70;;;31.40;50.10;;;;;;6277787;22;20454;-74
2023/09/17 14:35:27;;;;;;;4.33;1.30;;;31.20;50.30;;;;;;6277942;22;20500;-74
2023/09/17 14:37:55;;;;;;;2.00;1.40;;;32.10;49.20;;;;;;6277637;22;20401;-75
2023/09/17 14:40:21;;;;;;;2.30;1.23;;;33.50;45.50;;;;;;6277613;22;20471;-76
2023/09/17 14:42:48;;;;;;;2.23;1.40;;;34.00;44.70;;;;;;6277152;22;20409;-74
2023/09/17 14:45:17;;;;;;;1.63;1.03;;;33.80;44.20;;;;;;6277458;22;20429;-74
2023/09/17 14:47:45;;;;;;;2.43;1.20;;;32.90;45.70;;;;;;6277775;22;20408;-73
2023/09/17 14:50:12;;;;;;;1.83;1.10;;;33.70;45.40;;;;;;6277563;22;20393;-74
2023/09/17 14:52:39;;;;;;;2.00;1.20;;;34.80;42.40;;;;;;6277516;22;20454;-74
2023/09/17 14:55:07;;;;;;;2.10;0.93;;;35.20;41.90;;;;;;6277409;22;20428;-74
2023/09/17 14:57:36;;;;;;;2.10;1.00;;;35.80;40.60;;;;;;6277438;22;20400;-75
2023/09/17 15:00:04;;;;;;;2.40;1.27;;;36.30;40.30;;;;;;6276981;22;20980;-74
2023/09/17 15:02:31;;;;;;;1.57;1.03;;;37.00;39.90;;;;;;6277404;22;20400;-74
2023/09/17 15:05:01;;;;;;;1.60;1.00;;;36.80;39.40;;;;;;6277326;22;20417;-74
2023/09/17 15:07:27;;;;;;;2.53;1.30;;;36.50;38.70;;;;;;6277368;22;20401;-75
2023/09/17 15:09:54;;;;;;;1.73;1.00;;;36.30;39.30;;;;;;6277723;22;20397;-75
2023/09/17 15:12:21;;;;;;;2.10;1.20;;;36.60;39.00;;;;;;6277273;22;20407;-75
2023/09/17 15:14:47;;;;;;;2.00;1.20;;;36.50;39.90;;;;;;6277082;22;20396;-75
2023/09/17 15:17:14;;;;;;;1.40;0.90;;;36.10;39.80;;;;;;6277041;22;20384;-75
2023/09/17 15:19:41;;;;;;;2.07;1.00;;;35.70;40.70;;;;;;6277189;22;20403;-74
2023/09/17 15:22:09;;;;;;;2.17;1.10;;;34.70;41.50;;;;;;6277259;22;20408;-75
2023/09/17 15:24:35;;;;;;;1.70;1.10;;;33.70;43.10;;;;;;6277148;22;20397;-75
2023/09/17 15:27:02;;;;;;;1.60;1.00;;;33.40;44.50;;;;;;6277171;22;20398;-75
2023/09/17 15:29:29;;;;;;;2.00;1.10;;;33.00;44.30;;;;;;6277177;22;20409;-74
2023/09/17 15:31:56;;;;;;;2.00;1.17;;;32.60;45.00;;;;;;6277108;22;20401;-74
2023/09/17 15:34:22;;;;;;;2.10;1.30;;;31.90;46.70;;;;;;6277102;22;20409;-74
2023/09/17 15:36:51;;;;;;;1.60;1.00;;;31.70;47.30;;;;;;6276999;22;20421;-75
2023/09/17 15:39:19;;;;;;;2.47;1.10;;;31.60;48.40;;;;;;6277106;22;20424;-74
2023/09/17 15:41:45;;;;;;;2.60;1.10;;;31.20;47.80;;;;;;6276559;22;20955;-74
2023/09/17 15:44:12;;;;;;;3.47;1.50;;;30.80;48.60;;;;;;6276729;22;20892;-74
2023/09/17 15:46:41;;;;;;;2.50;1.40;;;30.70;49.00;;;;;;6276910;22;20712;-74
2023/09/17 15:49:08;;;;;;;2.43;1.13;;;30.30;49.20;;;;;;6276974;22;20405;-74
2023/09/17 15:51:34;;;;;;;1.77;1.10;;;30.10;50.20;;;;;;6276542;22;20400;-74
2023/09/17 15:54:01;;;;;;;3.10;1.40;;;29.90;50.00;;;;;;6276485;22;20404;-74
2023/09/17 15:56:29;;;;;;;2.80;1.50;;;29.70;50.30;;;;;;6276420;22;20806;-74
2023/09/17 15:58:56;;;;;;;1.70;1.10;;;29.70;50.60;;;;;;6276890;22;20401;-74
2023/09/17 16:01:22;;;;;;;2.10;1.37;;;29.80;50.50;;;;;;6276746;22;20433;-74
2023/09/17 16:03:49;;;;;;;1.50;0.87;;;29.90;51.20;;;;;;6276803;22;20408;-75
2023/09/17 16:06:22;;;;;;;2.20;1.03;;;30.00;51.10;;;;;;6277048;22;20802;-75
2023/09/17 16:08:49;;;;;;;1.90;1.30;;;30.20;51.40;;;;;;6276889;22;20389;-74
2023/09/17 16:11:16;;;;;;;2.43;1.20;;;29.90;50.80;;;;;;6276747;22;20405;-74
2023/09/17 16:13:44;;;;;;;4.80;1.47;;;29.80;51.60;;;;;;6276696;22;20459;-74
2023/09/17 16:16:11;;;;;;;2.43;1.37;;;29.70;51.40;;;;;;6276926;22;20471;-74
2023/09/17 16:18:37;;;;;;;2.27;1.20;;;29.70;51.80;;;;;;6276299;22;20923;-74
2023/09/17 16:21:05;;;;;;;2.40;1.50;;;29.70;52.00;;;;;;6276591;22;20770;-74
2023/09/17 16:23:31;;;;;;;1.80;1.20;;;29.30;52.30;;;;;;6276794;22;20405;-74
2023/09/17 16:25:58;;;;;;;2.90;1.33;;;29.30;52.80;;;;;;6276578;22;20848;-74
2023/09/17 16:28:25;;;;;;;2.00;1.20;;;29.10;52.80;;;;;;6276623;22;20401;-74
2023/09/17 16:30:53;;;;;;;2.10;1.40;;;29.10;53.20;;;;;;6276600;22;20488;-74
2023/09/17 16:33:20;;;;;;;2.00;1.50;;;29.00;53.30;;;;;;6276613;22;20421;-74
2023/09/17 16:35:47;;;;;;;2.03;1.50;;;29.10;53.40;;;;;;6276496;22;20425;-74
2023/09/17 16:38:14;;;;;;;3.80;1.77;;;29.10;53.50;;;;;;6276655;22;20432;-74
2023/09/17 16:40:43;;;;;;;2.50;1.40;;;29.00;53.60;;;;;;6276319;22;20464;-74
2023/09/17 16:43:10;;;;;;;2.33;1.10;;;28.90;53.60;;;;;;6276568;22;20785;-74
2023/09/17 16:45:37;;;;;;;8.27;1.70;;;28.90;53.80;;;;;;6276499;22;20440;-74
2023/09/17 16:48:05;;;;;;;2.50;1.50;;;29.10;54.00;;;;;;6276506;22;20492;-74
2023/09/17 16:50:32;;;;;;;2.73;1.57;;;29.10;53.60;;;;;;6276137;22;20744;-74